KLM188 TNCC-EHAM
Flight info
| Callsign | KLM188 |
|---|---|
| Flight time | N/A |
| Altitude | 33000 |
| Route | SCAPA1K SCAPA DCT DAWIN/M083F330 DCT KAVAX/M083F350 DCT 27N055W 31N050W 36N040W 42N030W/M083F370 45N020W 47N015W DCT TAMEL DCT EVBAK DCT GAPLI/N0471F370 DCT GAJIT DCT ENHAQ M197 REDFA |
| Aircraft | B77W/H-SDE1E2E3FGHIJ2J3J4J5M1RWXY/LB1D1 |
Departure
| Time | 2026-04-25 02:08 |
|---|---|
| Airport | Hato International Airport (TNCC) |
Arrival
| Time | N/A |
|---|---|
| Airport | Amsterdam Airport Schiphol (EHAM) |
| Time | Latitude | Longitude | Altitude | Speed | Heading |
|---|---|---|---|---|---|
| 2026-04-25 02:02 | 12.18738 | -68.96105 | 47 ft | 16 kts | 282° |
| 2026-04-25 02:02 | 12.18762 | -68.96214 | 47 ft | 14 kts | 283° |
| 2026-04-25 02:03 | 12.18782 | -68.96312 | 47 ft | 14 kts | 282° |
| 2026-04-25 02:03 | 12.18801 | -68.96406 | 47 ft | 11 kts | 282° |
| 2026-04-25 02:03 | 12.18818 | -68.96485 | 47 ft | 11 kts | 282° |
| 2026-04-25 02:03 | 12.18834 | -68.96564 | 47 ft | 11 kts | 282° |
| 2026-04-25 02:04 | 12.18850 | -68.96643 | 46 ft | 11 kts | 282° |
| 2026-04-25 02:04 | 12.18867 | -68.96722 | 46 ft | 11 kts | 282° |
| 2026-04-25 02:04 | 12.18884 | -68.96801 | 44 ft | 11 kts | 282° |
| 2026-04-25 02:04 | 12.18901 | -68.96879 | 45 ft | 11 kts | 282° |
| 2026-04-25 02:05 | 12.18917 | -68.96958 | 45 ft | 11 kts | 282° |
| 2026-04-25 02:05 | 12.18937 | -68.97048 | 45 ft | 17 kts | 283° |
| 2026-04-25 02:05 | 12.18964 | -68.97182 | 45 ft | 19 kts | 281° |
| 2026-04-25 02:05 | 12.18992 | -68.97317 | 44 ft | 19 kts | 282° |
| 2026-04-25 02:06 | 12.19020 | -68.97452 | 44 ft | 19 kts | 281° |
| 2026-04-25 02:06 | 12.19046 | -68.97579 | 44 ft | 13 kts | 282° |
| 2026-04-25 02:06 | 12.19095 | -68.97643 | 44 ft | 12 kts | 347° |
| 2026-04-25 02:06 | 12.19171 | -68.97627 | 44 ft | 12 kts | 40° |
| 2026-04-25 02:07 | 12.19204 | -68.97502 | 44 ft | 30 kts | 94° |
| 2026-04-25 02:07 | 12.19128 | -68.97110 | 44 ft | 91 kts | 102° |
| 2026-04-25 02:07 | 12.18946 | -68.96251 | 48 ft | 155 kts | 102° |
| 2026-04-25 02:07 | 12.18681 | -68.95000 | 138 ft | 194 kts | 102° |
| 2026-04-25 02:08 | 12.18401 | -68.93686 | 787 ft | 191 kts | 99° |
| 2026-04-25 02:08 | 12.18190 | -68.92310 | 1325 ft | 193 kts | 91° |
| 2026-04-25 02:08 | 12.18258 | -68.90981 | 2062 ft | 187 kts | 80° |
| 2026-04-25 02:08 | 12.18630 | -68.89664 | 2393 ft | 198 kts | 65° |
| 2026-04-25 02:09 | 12.19377 | -68.88476 | 2845 ft | 198 kts | 51° |
| 2026-04-25 02:09 | 12.20355 | -68.87516 | 3340 ft | 201 kts | 37° |
| 2026-04-25 02:09 | 12.21594 | -68.86787 | 3664 ft | 210 kts | 24° |
| 2026-04-25 02:09 | 12.22983 | -68.86285 | 4062 ft | 212 kts | 18° |
| 2026-04-25 02:10 | 12.24397 | -68.85849 | 4521 ft | 213 kts | 15° |
| 2026-04-25 02:10 | 12.25827 | -68.85443 | 4921 ft | 215 kts | 15° |
| 2026-04-25 02:10 | 12.27327 | -68.84997 | 5046 ft | 233 kts | 15° |
| 2026-04-25 02:10 | 12.28938 | -68.84481 | 5208 ft | 253 kts | 18° |
| 2026-04-25 02:11 | 12.30059 | -68.84094 | 5443 ft | 261 kts | 18° |
| 2026-04-25 02:11 | 12.31814 | -68.83480 | 5847 ft | 271 kts | 19° |
| 2026-04-25 02:11 | 12.34243 | -68.82630 | 6539 ft | 280 kts | 18° |
| 2026-04-25 02:11 | 12.35470 | -68.82204 | 6927 ft | 282 kts | 18° |
| 2026-04-25 02:12 | 12.37331 | -68.81562 | 7553 ft | 283 kts | 18° |
| 2026-04-25 02:12 | 12.39201 | -68.80919 | 8203 ft | 284 kts | 18° |
| 2026-04-25 02:12 | 12.41075 | -68.80275 | 8844 ft | 285 kts | 18° |
| 2026-04-25 02:12 | 12.42964 | -68.79627 | 9473 ft | 287 kts | 18° |
| 2026-04-25 02:13 | 12.44861 | -68.78977 | 10098 ft | 287 kts | 18° |
| 2026-04-25 02:13 | 12.46777 | -68.78320 | 10506 ft | 298 kts | 18° |
| 2026-04-25 02:13 | 12.48811 | -68.77623 | 10669 ft | 318 kts | 18° |
| 2026-04-25 02:13 | 12.50965 | -68.76887 | 10858 ft | 336 kts | 18° |
| 2026-04-25 02:14 | 12.53249 | -68.76103 | 11004 ft | 356 kts | 18° |
| 2026-04-25 02:14 | 12.55657 | -68.75277 | 11282 ft | 370 kts | 18° |
| 2026-04-25 02:14 | 12.58124 | -68.74430 | 11835 ft | 377 kts | 18° |
| 2026-04-25 02:14 | 12.60624 | -68.73571 | 12482 ft | 381 kts | 18° |
| 2026-04-25 02:15 | 12.63153 | -68.72703 | 13080 ft | 386 kts | 18° |
| 2026-04-25 02:15 | 12.65730 | -68.71819 | 13678 ft | 392 kts | 18° |
| 2026-04-25 02:15 | 12.68314 | -68.70897 | 14195 ft | 397 kts | 19° |
| 2026-04-25 02:15 | 12.70900 | -68.69927 | 14677 ft | 403 kts | 19° |
| 2026-04-25 02:16 | 12.73546 | -68.68918 | 15152 ft | 409 kts | 19° |
| 2026-04-25 02:16 | 12.76226 | -68.67891 | 15662 ft | 413 kts | 19° |
| 2026-04-25 02:16 | 12.78935 | -68.66855 | 16193 ft | 417 kts | 19° |
| 2026-04-25 02:16 | 12.81676 | -68.65809 | 16717 ft | 422 kts | 19° |
| 2026-04-25 02:17 | 12.84444 | -68.64757 | 17184 ft | 427 kts | 19° |
| 2026-04-25 02:17 | 12.87247 | -68.63693 | 17681 ft | 431 kts | 19° |
| 2026-04-25 02:17 | 12.90077 | -68.62620 | 18221 ft | 435 kts | 19° |
| 2026-04-25 02:17 | 12.92928 | -68.61539 | 18609 ft | 440 kts | 19° |
| 2026-04-25 02:18 | 12.95814 | -68.60446 | 19091 ft | 442 kts | 19° |
| 2026-04-25 02:18 | 12.98704 | -68.59351 | 19529 ft | 446 kts | 19° |
| 2026-04-25 02:18 | 13.01628 | -68.58242 | 19941 ft | 450 kts | 19° |
| 2026-04-25 02:18 | 13.04539 | -68.57138 | 20378 ft | 453 kts | 19° |
| 2026-04-25 02:19 | 13.07505 | -68.56014 | 20813 ft | 456 kts | 19° |
| 2026-04-25 02:19 | 13.10490 | -68.54881 | 21244 ft | 459 kts | 19° |
| 2026-04-25 02:19 | 13.13503 | -68.53738 | 21650 ft | 463 kts | 19° |
| 2026-04-25 02:19 | 13.16529 | -68.52590 | 22039 ft | 467 kts | 19° |
| 2026-04-25 02:20 | 13.19594 | -68.51426 | 22426 ft | 470 kts | 19° |
| 2026-04-25 02:20 | 13.22669 | -68.50258 | 22815 ft | 474 kts | 19° |
| 2026-04-25 02:20 | 13.25777 | -68.49077 | 23201 ft | 477 kts | 19° |
| 2026-04-25 02:20 | 13.28901 | -68.47890 | 23567 ft | 481 kts | 19° |
| 2026-04-25 02:21 | 13.32048 | -68.46694 | 23876 ft | 483 kts | 19° |
| 2026-04-25 02:21 | 13.35210 | -68.45492 | 24218 ft | 485 kts | 19° |
| 2026-04-25 02:21 | 13.38380 | -68.44286 | 24568 ft | 487 kts | 19° |
| 2026-04-25 02:21 | 13.41561 | -68.43076 | 24910 ft | 489 kts | 19° |
| 2026-04-25 02:22 | 13.44762 | -68.41858 | 25241 ft | 491 kts | 19° |
| 2026-04-25 02:22 | 13.47973 | -68.40636 | 25541 ft | 494 kts | 19° |
| 2026-04-25 02:22 | 13.51208 | -68.39404 | 25863 ft | 496 kts | 19° |
| 2026-04-25 02:22 | 13.54450 | -68.38169 | 26170 ft | 498 kts | 19° |
| 2026-04-25 02:23 | 13.57711 | -68.36927 | 26482 ft | 500 kts | 19° |
| 2026-04-25 02:23 | 13.60941 | -68.35696 | 26777 ft | 502 kts | 19° |
| 2026-04-25 02:23 | 13.64229 | -68.34443 | 27082 ft | 505 kts | 19° |
| 2026-04-25 02:23 | 13.67525 | -68.33186 | 27370 ft | 507 kts | 19° |
| 2026-04-25 02:24 | 13.70843 | -68.31921 | 27657 ft | 509 kts | 19° |
| 2026-04-25 02:24 | 13.74177 | -68.30649 | 27936 ft | 511 kts | 19° |
| 2026-04-25 02:24 | 13.77525 | -68.29371 | 28209 ft | 514 kts | 19° |
| 2026-04-25 02:24 | 13.80878 | -68.28091 | 28477 ft | 516 kts | 19° |
| 2026-04-25 02:25 | 13.84258 | -68.26800 | 28722 ft | 518 kts | 19° |
| 2026-04-25 02:25 | 13.87641 | -68.25508 | 28956 ft | 520 kts | 19° |
| 2026-04-25 02:25 | 13.91039 | -68.24210 | 29186 ft | 522 kts | 19° |
| 2026-04-25 02:25 | 13.94446 | -68.22907 | 29415 ft | 523 kts | 19° |
| 2026-04-25 02:26 | 13.97869 | -68.21598 | 29782 ft | 522 kts | 19° |
| 2026-04-25 02:26 | 14.01229 | -68.20313 | 30131 ft | 521 kts | 19° |
| 2026-04-25 02:26 | 14.04628 | -68.19012 | 30420 ft | 521 kts | 19° |
| 2026-04-25 02:26 | 14.08033 | -68.17709 | 30679 ft | 521 kts | 19° |
| 2026-04-25 02:27 | 14.11433 | -68.16407 | 30935 ft | 522 kts | 19° |
| 2026-04-25 02:27 | 14.14847 | -68.15100 | 31193 ft | 522 kts | 19° |
| 2026-04-25 02:27 | 14.18258 | -68.13793 | 31445 ft | 522 kts | 19° |
| 2026-04-25 02:27 | 14.21663 | -68.12488 | 31698 ft | 523 kts | 19° |
| 2026-04-25 02:28 | 14.25071 | -68.11182 | 31955 ft | 523 kts | 19° |
| 2026-04-25 02:28 | 14.28488 | -68.09872 | 32205 ft | 523 kts | 19° |
| 2026-04-25 02:28 | 14.31891 | -68.08566 | 32448 ft | 523 kts | 19° |
| 2026-04-25 02:28 | 14.35306 | -68.07256 | 32698 ft | 523 kts | 19° |
| 2026-04-25 02:29 | 14.38725 | -68.05944 | 32897 ft | 525 kts | 19° |
| 2026-04-25 02:29 | 14.45602 | -68.03303 | 32975 ft | 527 kts | 18° |
| 2026-04-25 02:30 | 14.52452 | -68.00670 | 32973 ft | 524 kts | 18° |
| 2026-04-25 02:30 | 14.59280 | -67.98044 | 32981 ft | 523 kts | 18° |
| 2026-04-25 02:31 | 14.66103 | -67.95419 | 32986 ft | 523 kts | 18° |
| 2026-04-25 02:31 | 14.72933 | -67.92790 | 32985 ft | 524 kts | 18° |
| 2026-04-25 02:32 | 14.79766 | -67.90158 | 32987 ft | 525 kts | 18° |
| 2026-04-25 02:32 | 14.86635 | -67.87509 | 32986 ft | 527 kts | 18° |
| 2026-04-25 02:33 | 14.93468 | -67.84873 | 32986 ft | 528 kts | 18° |
| 2026-04-25 02:33 | 15.00367 | -67.82209 | 32989 ft | 529 kts | 18° |
| 2026-04-25 02:34 | 15.07271 | -67.79542 | 32989 ft | 529 kts | 18° |
| 2026-04-25 02:34 | 15.14184 | -67.76869 | 32985 ft | 530 kts | 18° |
| 2026-04-25 02:35 | 15.21037 | -67.74217 | 32984 ft | 529 kts | 18° |
| 2026-04-25 02:35 | 15.27939 | -67.71545 | 32984 ft | 529 kts | 18° |
| 2026-04-25 02:36 | 15.34826 | -67.68876 | 32987 ft | 528 kts | 18° |
| 2026-04-25 02:36 | 15.41720 | -67.66204 | 32986 ft | 528 kts | 18° |
| 2026-04-25 02:37 | 15.48603 | -67.63533 | 32989 ft | 528 kts | 18° |
| 2026-04-25 02:37 | 15.55487 | -67.60860 | 32988 ft | 528 kts | 18° |
| 2026-04-25 02:38 | 15.62319 | -67.58205 | 32992 ft | 528 kts | 18° |
| 2026-04-25 02:38 | 15.69201 | -67.55529 | 32990 ft | 528 kts | 18° |
| 2026-04-25 02:39 | 15.76080 | -67.52852 | 32991 ft | 528 kts | 18° |
| 2026-04-25 02:39 | 15.82912 | -67.50044 | 32980 ft | 530 kts | 26° |
| 2026-04-25 02:39 | 15.85917 | -67.47825 | 32988 ft | 531 kts | 43° |
| 2026-04-25 02:40 | 15.88521 | -67.45099 | 33007 ft | 531 kts | 45° |
| 2026-04-25 02:40 | 15.93635 | -67.39588 | 33002 ft | 535 kts | 45° |
| 2026-04-25 02:41 | 15.98859 | -67.34056 | 33003 ft | 537 kts | 44° |
| 2026-04-25 02:41 | 16.04170 | -67.28544 | 33004 ft | 539 kts | 44° |
| 2026-04-25 02:42 | 16.09502 | -67.23045 | 32996 ft | 540 kts | 44° |
| 2026-04-25 02:42 | 16.14835 | -67.17539 | 32997 ft | 540 kts | 44° |
| 2026-04-25 02:43 | 16.20157 | -67.12029 | 32984 ft | 539 kts | 44° |
| 2026-04-25 02:43 | 16.25433 | -67.06559 | 32994 ft | 538 kts | 44° |
| 2026-04-25 02:44 | 16.30749 | -67.01042 | 32997 ft | 538 kts | 44° |
| 2026-04-25 02:44 | 16.36045 | -66.95544 | 32997 ft | 537 kts | 44° |
| 2026-04-25 02:45 | 16.41333 | -66.90049 | 32994 ft | 537 kts | 44° |
| 2026-04-25 02:45 | 16.46601 | -66.84570 | 33002 ft | 538 kts | 44° |
| 2026-04-25 02:46 | 16.51904 | -66.79052 | 33000 ft | 538 kts | 44° |
| 2026-04-25 02:46 | 16.57204 | -66.73531 | 33002 ft | 539 kts | 44° |
| 2026-04-25 02:47 | 16.62510 | -66.68000 | 33005 ft | 539 kts | 44° |
| 2026-04-25 02:47 | 16.67820 | -66.62459 | 33006 ft | 540 kts | 44° |
| 2026-04-25 02:48 | 16.73131 | -66.56912 | 33006 ft | 540 kts | 44° |
| 2026-04-25 02:48 | 16.78452 | -66.51352 | 32997 ft | 541 kts | 44° |
| 2026-04-25 02:49 | 16.83740 | -66.45820 | 33007 ft | 541 kts | 44° |